Time;durP1;ratioP1;P1;durP2;ratioP2;P2;SDS_P1;SDS_P2;PMS_P1;PMS_P2;Temp;Humidity;BMP_temperature;BMP_pressure;BME280_temperature;BME280_humidity;BME280_pressure;Samples;Min_cycle;Max_cycle;Signal;HPM_P1;HPM_P2
2022/05/23 00:02:30;;;;;;;3.00;2.80;;;13.80;99.90;;;;;;5039296;28;20867;-71
2022/05/23 00:05:20;;;;;;;5.47;2.77;;;13.80;99.90;;;;;;5038706;28;20533;-71
2022/05/23 00:08:10;;;;;;;2.93;2.53;;;13.70;99.90;;;;;;5039491;28;20547;-70
2022/05/23 00:10:58;;;;;;;3.27;2.60;;;13.70;99.90;;;;;;5039030;28;20534;-70
2022/05/23 00:13:46;;;;;;;3.57;2.90;;;13.70;99.90;;;;;;5038154;28;20617;-70
2022/05/23 00:16:41;;;;;;;3.00;2.70;;;13.70;99.90;;;;;;5038028;28;20501;-70
2022/05/23 00:19:33;;;;;;;4.80;2.80;;;13.70;99.90;;;;;;5038336;28;20462;-70
2022/05/23 00:22:22;;;;;;;2.80;2.60;;;13.70;99.90;;;;;;5038987;28;20608;-71
2022/05/23 00:25:14;;;;;;;3.63;3.10;;;13.70;99.90;;;;;;5040137;28;20467;-70
2022/05/23 00:28:02;;;;;;;4.70;2.57;;;13.60;99.90;;;;;;5040276;28;20470;-70
2022/05/23 00:30:53;;;;;;;3.47;3.17;;;13.60;99.90;;;;;;5043565;28;20599;-70
2022/05/23 00:36:47;;;;;;;3.03;2.77;;;13.50;99.90;;;;;;5032773;28;20467;-70
2022/05/23 00:39:36;;;;;;;2.97;2.60;;;13.50;99.90;;;;;;5038601;28;20554;-69
2022/05/23 00:45:33;;;;;;;3.80;3.10;;;13.50;99.90;;;;;;5034354;28;20896;-69
2022/05/23 00:48:23;;;;;;;2.77;2.57;;;13.50;99.90;;;;;;5037712;28;20548;-69
2022/05/23 00:51:16;;;;;;;3.40;2.67;;;13.40;99.90;;;;;;5034465;28;20494;-71
2022/05/23 00:54:09;;;;;;;5.73;2.90;;;13.40;99.90;;;;;;5036124;28;20508;-70
2022/05/23 00:56:59;;;;;;;3.93;2.80;;;13.40;99.90;;;;;;5035712;28;21297;-72
2022/05/23 00:59:50;;;;;;;5.63;3.10;;;13.30;99.90;;;;;;5035681;28;21065;-71
2022/05/23 01:02:42;;;;;;;3.20;2.90;;;13.30;99.90;;;;;;5034531;28;20477;-70
2022/05/23 01:05:32;;;;;;;3.47;3.17;;;13.30;99.90;;;;;;5035164;28;20652;-71
2022/05/23 01:08:21;;;;;;;4.50;3.03;;;13.30;99.90;;;;;;5039551;28;20482;-71
2022/05/23 01:11:10;;;;;;;5.80;3.43;;;13.20;99.90;;;;;;5037153;28;21043;-70
2022/05/23 01:14:00;;;;;;;3.43;3.13;;;13.30;99.90;;;;;;5033674;28;20533;-70
2022/05/23 01:16:52;;;;;;;4.10;2.90;;;13.20;99.90;;;;;;5034929;28;20615;-70
2022/05/23 01:19:42;;;;;;;3.77;3.47;;;13.10;99.90;;;;;;5034590;28;20472;-69
2022/05/23 01:22:42;;;;;;;4.63;3.37;;;13.10;99.90;;;;;;5032853;28;20503;-71
2022/05/23 01:25:33;;;;;;;3.80;3.17;;;13.10;99.90;;;;;;5035501;28;20518;-70
2022/05/23 01:28:21;;;;;;;3.60;3.30;;;13.10;99.90;;;;;;5033476;28;20565;-70
2022/05/23 01:31:12;;;;;;;3.47;3.00;;;13.10;99.90;;;;;;5032706;28;20622;-70
2022/05/23 01:34:01;;;;;;;2.83;2.63;;;13.00;99.90;;;;;;5035491;28;20490;-71
2022/05/23 01:36:50;;;;;;;4.07;3.00;;;13.00;99.90;;;;;;5032730;28;20524;-71
2022/05/23 01:39:39;;;;;;;3.47;3.10;;;13.00;99.90;;;;;;5037794;28;20536;-70
2022/05/23 01:42:32;;;;;;;3.50;3.20;;;13.00;99.90;;;;;;5036758;28;20506;-70
2022/05/23 01:45:32;;;;;;;4.17;3.43;;;13.00;99.90;;;;;;5037901;28;21032;-72
2022/05/23 01:48:21;;;;;;;4.10;3.67;;;13.00;99.90;;;;;;5035690;28;20572;-69
2022/05/23 01:51:09;;;;;;;3.40;3.10;;;12.90;99.90;;;;;;5038319;28;21073;-71
2022/05/23 01:53:59;;;;;;;4.83;3.50;;;12.90;99.90;;;;;;5035454;28;20546;-70
2022/05/23 01:56:51;;;;;;;3.83;3.53;;;12.90;99.90;;;;;;5037077;28;20472;-71
2022/05/23 02:02:47;;;;;;;3.83;3.47;;;13.00;99.90;;;;;;5037324;28;20617;-70
2022/05/23 02:05:40;;;;;;;3.87;2.90;;;13.00;99.90;;;;;;5037450;28;20447;-72
2022/05/23 02:08:28;;;;;;;4.50;3.10;;;13.00;99.90;;;;;;5035243;28;20550;-71
2022/05/23 02:11:16;;;;;;;3.20;2.90;;;12.90;99.90;;;;;;5035720;28;20636;-70
2022/05/23 02:14:13;;;;;;;3.50;3.23;;;12.90;99.90;;;;;;5044850;28;20461;-73
2022/05/23 02:17:03;;;;;;;3.47;2.87;;;12.90;99.90;;;;;;5056571;28;20513;-71
2022/05/23 02:19:53;;;;;;;3.63;3.23;;;12.90;99.90;;;;;;5056723;28;20494;-72
2022/05/23 02:22:44;;;;;;;5.47;3.33;;;12.80;99.90;;;;;;5049705;28;20579;-72
2022/05/23 02:25:34;;;;;;;5.83;3.80;;;12.80;99.90;;;;;;5038224;28;20459;-71
2022/05/23 02:28:25;;;;;;;3.73;3.23;;;12.70;99.90;;;;;;5036453;28;20857;-72
2022/05/23 02:31:17;;;;;;;3.70;3.40;;;12.70;99.90;;;;;;5035630;28;20545;-71
2022/05/23 02:34:07;;;;;;;3.73;3.40;;;12.60;99.90;;;;;;5033875;28;20546;-71
2022/05/23 02:36:55;;;;;;;6.53;3.73;;;12.60;99.90;;;;;;5034611;28;20550;-70
2022/05/23 02:39:43;;;;;;;5.60;3.47;;;12.70;99.90;;;;;;5033287;28;20543;-71
2022/05/23 02:42:35;;;;;;;4.47;3.50;;;12.70;99.90;;;;;;5029580;28;21004;-71
2022/05/23 02:45:25;;;;;;;3.70;3.30;;;12.70;99.90;;;;;;5032289;28;20573;-71
2022/05/23 02:48:19;;;;;;;5.17;4.00;;;12.60;99.90;;;;;;5035421;28;20479;-71
2022/05/23 02:51:12;;;;;;;3.63;3.30;;;12.60;99.90;;;;;;5035601;28;20466;-70
2022/05/23 02:54:03;;;;;;;5.20;3.97;;;12.60;99.90;;;;;;5029395;28;20565;-71
2022/05/23 02:56:57;;;;;;;3.83;3.10;;;12.60;99.90;;;;;;5033723;28;20537;-71
2022/05/23 02:59:46;;;;;;;3.60;3.30;;;12.50;99.90;;;;;;5036542;28;21140;-71
2022/05/23 03:05:45;;;;;;;3.50;3.17;;;12.60;99.90;;;;;;5036898;28;20510;-73
2022/05/23 03:08:40;;;;;;;3.73;3.43;;;12.50;99.90;;;;;;5038751;28;20463;-70
2022/05/23 03:11:36;;;;;;;3.60;3.30;;;12.40;99.90;;;;;;5045182;28;20499;-71
2022/05/23 03:14:29;;;;;;;4.30;3.13;;;12.40;99.90;;;;;;5049078;28;21297;-71
2022/05/23 03:17:17;;;;;;;3.47;3.17;;;12.40;99.90;;;;;;5057661;28;20920;-73
2022/05/23 03:20:12;;;;;;;6.00;3.30;;;12.40;99.90;;;;;;5045787;28;20450;-71
2022/05/23 03:29:21;;;;;;;4.70;3.27;;;12.40;99.90;;;;;;5040837;28;20545;-70
2022/05/23 03:32:09;;;;;;;3.50;3.20;;;12.40;99.90;;;;;;5040691;28;20605;-71
2022/05/23 03:34:57;;;;;;;4.13;3.60;;;12.40;99.90;;;;;;5040881;28;20479;-71
2022/05/23 03:37:48;;;;;;;4.93;3.50;;;12.40;99.90;;;;;;5040676;28;21331;-71
2022/05/23 03:40:40;;;;;;;5.03;3.53;;;12.40;99.90;;;;;;5042137;28;20505;-72
2022/05/23 03:43:36;;;;;;;4.00;3.70;;;12.40;99.90;;;;;;5037866;28;20486;-71
2022/05/23 03:46:27;;;;;;;3.50;3.13;;;12.40;99.90;;;;;;5042864;28;20450;-72
2022/05/23 03:49:20;;;;;;;4.50;3.60;;;12.40;99.90;;;;;;5038848;28;20469;-71
2022/05/23 03:52:10;;;;;;;5.50;3.77;;;12.40;99.90;;;;;;5042082;28;20597;-70
2022/05/23 03:55:00;;;;;;;3.70;3.40;;;12.30;99.90;;;;;;5040149;28;20447;-71
2022/05/23 03:57:56;;;;;;;5.07;3.83;;;12.30;99.90;;;;;;5035923;28;20978;-70
2022/05/23 04:00:49;;;;;;;4.57;3.10;;;12.30;99.90;;;;;;5042815;28;20580;-72
2022/05/23 04:03:41;;;;;;;4.43;3.97;;;12.30;99.90;;;;;;5040027;28;21266;-71
2022/05/23 04:06:35;;;;;;;5.40;3.80;;;12.30;99.90;;;;;;5039090;28;20456;-72
2022/05/23 04:09:23;;;;;;;5.27;3.87;;;12.30;99.90;;;;;;5037189;28;21485;-72
2022/05/23 04:12:13;;;;;;;4.13;3.50;;;12.30;99.90;;;;;;5039746;28;20585;-71
2022/05/23 04:15:04;;;;;;;4.33;3.43;;;12.30;99.90;;;;;;5046831;28;20544;-72
2022/05/23 04:17:57;;;;;;;4.10;3.70;;;12.30;99.90;;;;;;5042474;28;20604;-70
2022/05/23 04:20:45;;;;;;;3.90;3.50;;;12.30;99.90;;;;;;5038171;28;20460;-70
2022/05/23 04:23:36;;;;;;;3.73;3.43;;;12.30;99.90;;;;;;5040877;28;20557;-71
2022/05/23 04:26:24;;;;;;;3.90;3.07;;;12.30;99.90;;;;;;5040934;28;20976;-71
2022/05/23 04:29:12;;;;;;;3.70;3.40;;;12.40;99.90;;;;;;5037537;28;20838;-70
2022/05/23 04:32:00;;;;;;;3.93;3.50;;;12.40;99.90;;;;;;5041121;28;20542;-71
2022/05/23 04:37:56;;;;;;;4.20;3.80;;;12.40;99.90;;;;;;5039980;28;20591;-71
2022/05/23 04:40:47;;;;;;;4.37;3.47;;;12.30;99.90;;;;;;5035505;28;20543;-71
2022/05/23 04:43:41;;;;;;;3.70;3.37;;;12.30;99.90;;;;;;5036380;28;20569;-71
2022/05/23 04:46:30;;;;;;;3.70;3.40;;;12.30;99.90;;;;;;5036634;28;20549;-70
2022/05/23 04:52:25;;;;;;;4.90;3.70;;;12.40;99.90;;;;;;5036531;28;20543;-70
2022/05/23 04:55:19;;;;;;;3.93;3.30;;;12.50;99.90;;;;;;5033419;28;20461;-72
2022/05/23 04:58:07;;;;;;;3.63;3.40;;;12.50;99.90;;;;;;5040225;28;20470;-71
2022/05/23 05:00:57;;;;;;;3.37;3.07;;;12.60;99.90;;;;;;5039059;28;20958;-71
2022/05/23 05:03:49;;;;;;;3.60;3.30;;;12.60;99.90;;;;;;5036274;28;20476;-71
2022/05/23 05:06:38;;;;;;;3.57;3.27;;;12.60;99.90;;;;;;5036261;28;20612;-70
2022/05/23 05:09:27;;;;;;;4.00;3.50;;;12.70;99.90;;;;;;5035717;28;20502;-73
2022/05/23 05:12:18;;;;;;;4.07;3.00;;;12.70;99.90;;;;;;5035025;28;21081;-71
2022/05/23 05:15:08;;;;;;;3.37;3.07;;;12.80;99.90;;;;;;5044939;28;20458;-71
2022/05/23 05:18:12;;;;;;;3.43;2.90;;;12.90;99.90;;;;;;5039015;28;20968;-73
2022/05/23 05:21:12;;;;;;;3.53;2.90;;;13.00;99.90;;;;;;5015960;28;20455;-71
2022/05/23 05:24:05;;;;;;;3.53;3.23;;;13.00;99.90;;;;;;5036360;28;20560;-70
2022/05/23 05:26:55;;;;;;;4.43;3.10;;;13.10;99.90;;;;;;5030771;28;20751;-72
2022/05/23 05:29:43;;;;;;;5.27;3.00;;;13.20;99.90;;;;;;5028957;28;20505;-73
2022/05/23 05:32:38;;;;;;;3.53;3.20;;;13.30;99.90;;;;;;5041261;28;20471;-71
2022/05/23 05:35:33;;;;;;;3.50;3.20;;;13.30;99.90;;;;;;5035313;28;20482;-71
2022/05/23 05:38:26;;;;;;;4.80;2.97;;;13.40;99.90;;;;;;5040730;28;20563;-70
2022/05/23 05:41:21;;;;;;;3.23;2.90;;;13.40;99.90;;;;;;5039068;28;20531;-71
2022/05/23 05:44:14;;;;;;;3.60;3.30;;;13.40;99.90;;;;;;5039135;28;20479;-71
2022/05/23 05:47:08;;;;;;;2.80;2.43;;;13.50;99.90;;;;;;5041044;28;20491;-71
2022/05/23 05:50:16;;;;;;;4.03;2.47;;;13.50;99.90;;;;;;5041505;28;20955;-70
2022/05/23 05:53:08;;;;;;;2.73;2.50;;;13.60;99.90;;;;;;5037488;28;20578;-71
2022/05/23 05:56:03;;;;;;;3.30;2.50;;;13.60;99.90;;;;;;5039269;28;20859;-71
2022/05/23 05:58:51;;;;;;;4.10;2.57;;;13.70;99.90;;;;;;5035515;28;20474;-70
2022/05/23 06:01:41;;;;;;;2.90;2.63;;;13.70;99.90;;;;;;5038219;28;20475;-70
2022/05/23 06:04:29;;;;;;;3.17;2.50;;;13.80;99.90;;;;;;5048196;28;20461;-71
2022/05/23 06:13:36;;;;;;;4.80;2.90;;;14.00;99.90;;;;;;5041192;28;21111;-70
2022/05/23 06:16:25;;;;;;;2.30;2.10;;;14.10;99.90;;;;;;5039287;28;20965;-70
2022/05/23 06:19:15;;;;;;;3.03;2.23;;;14.10;99.90;;;;;;5037250;28;20510;-70
2022/05/23 06:22:05;;;;;;;2.80;2.60;;;14.20;99.90;;;;;;5039778;28;20520;-71
2022/05/23 06:24:53;;;;;;;3.03;2.13;;;14.30;99.90;;;;;;5040393;28;20940;-70
2022/05/23 06:27:41;;;;;;;1.93;1.83;;;14.40;99.90;;;;;;5036222;28;20502;-70
2022/05/23 06:30:30;;;;;;;3.10;2.40;;;14.50;99.90;;;;;;5039417;28;20487;-70
2022/05/23 06:33:18;;;;;;;3.90;2.40;;;14.50;99.90;;;;;;5039220;28;20565;-70
2022/05/23 06:36:08;;;;;;;4.43;2.63;;;14.60;99.90;;;;;;5039195;28;20533;-70
2022/05/23 06:38:57;;;;;;;4.47;1.90;;;14.70;99.90;;;;;;5040480;28;20489;-70
2022/05/23 06:41:47;;;;;;;2.40;2.13;;;14.80;99.90;;;;;;5037916;28;21268;-70
2022/05/23 06:44:35;;;;;;;2.20;2.00;;;14.90;99.90;;;;;;5039720;28;20552;-70
2022/05/23 06:47:24;;;;;;;2.20;2.07;;;14.90;99.90;;;;;;5037649;28;20551;-70
2022/05/23 06:50:12;;;;;;;2.90;2.50;;;15.00;99.90;;;;;;5036846;28;20511;-70
2022/05/23 06:53:02;;;;;;;2.37;2.17;;;15.10;99.90;;;;;;5037542;28;20887;-70
2022/05/23 06:55:50;;;;;;;2.70;1.97;;;15.10;99.90;;;;;;5038091;28;20488;-70
2022/05/23 06:58:39;;;;;;;5.70;2.60;;;15.20;99.90;;;;;;5039775;28;20473;-71
2022/05/23 07:01:27;;;;;;;2.53;1.90;;;15.30;99.90;;;;;;5037821;28;20983;-70
2022/05/23 07:04:16;;;;;;;2.20;2.00;;;15.40;99.90;;;;;;5039714;28;20470;-71
2022/05/23 07:13:19;;;;;;;1.97;1.87;;;15.70;99.90;;;;;;5039143;28;20563;-70
2022/05/23 07:16:09;;;;;;;2.57;2.20;;;15.80;99.90;;;;;;5039255;28;20604;-70
2022/05/23 07:18:57;;;;;;;2.50;1.80;;;15.90;99.90;;;;;;5037208;28;20565;-70
2022/05/23 07:21:46;;;;;;;2.40;2.00;;;16.00;99.90;;;;;;5037980;28;20492;-70
2022/05/23 07:24:34;;;;;;;3.37;2.23;;;16.10;99.90;;;;;;5039692;28;20529;-71
2022/05/23 07:27:26;;;;;;;2.40;1.90;;;16.20;99.90;;;;;;5038522;28;20498;-71
2022/05/23 07:30:14;;;;;;;2.27;2.03;;;16.30;99.90;;;;;;5030093;28;20467;-71
2022/05/23 07:33:02;;;;;;;2.00;1.90;;;16.30;99.90;;;;;;5039406;28;20702;-71
2022/05/23 07:35:54;;;;;;;2.17;2.00;;;16.40;99.90;;;;;;5039924;28;20452;-71
2022/05/23 07:38:42;;;;;;;3.07;1.93;;;16.50;99.90;;;;;;5038835;28;20577;-70
2022/05/23 07:41:32;;;;;;;3.23;2.20;;;16.60;99.90;;;;;;5039050;28;20546;-69
2022/05/23 07:44:21;;;;;;;2.90;1.93;;;16.70;99.90;;;;;;5039031;28;20605;-71
2022/05/23 07:47:09;;;;;;;2.57;2.30;;;16.70;99.90;;;;;;5036537;28;20464;-71
2022/05/23 07:49:58;;;;;;;3.93;2.10;;;16.90;99.90;;;;;;5039506;28;20950;-71
2022/05/23 08:00:31;;;;;;;3.27;1.87;;;17.00;99.90;;;;;;5040215;28;20523;-71
2022/05/23 08:02:10;;;;;;;2.53;1.90;;;17.20;99.90;;;;;;5041522;28;20462;-71
2022/05/23 08:04:58;;;;;;;2.60;2.30;;;17.30;99.90;;;;;;5035778;28;20472;-71
2022/05/23 08:07:47;;;;;;;2.63;2.43;;;17.40;99.90;;;;;;5042766;28;20477;-71
2022/05/23 08:10:35;;;;;;;2.40;2.20;;;17.50;99.90;;;;;;5041451;28;20542;-69
2022/05/23 08:13:23;;;;;;;4.63;2.47;;;17.60;99.90;;;;;;5040921;28;20621;-71
2022/05/23 08:16:12;;;;;;;3.10;2.23;;;17.70;99.90;;;;;;5043843;28;20454;-69
2022/05/23 08:19:02;;;;;;;3.60;2.50;;;17.70;99.90;;;;;;5042724;28;20561;-69
2022/05/23 08:21:52;;;;;;;3.77;2.20;;;17.70;99.90;;;;;;5040619;28;20533;-70
2022/05/23 08:24:40;;;;;;;3.30;2.50;;;17.80;99.90;;;;;;5043477;28;20557;-69
2022/05/23 08:27:29;;;;;;;3.53;2.00;;;17.80;99.90;;;;;;5041125;28;20474;-69
2022/05/23 08:30:17;;;;;;;2.43;2.10;;;17.90;99.90;;;;;;5043184;28;20521;-71
2022/05/23 08:33:06;;;;;;;2.50;2.30;;;18.00;99.90;;;;;;5039888;28;20467;-70
2022/05/23 08:35:56;;;;;;;2.83;2.10;;;18.00;99.90;;;;;;5041109;28;20456;-71
2022/05/23 08:38:44;;;;;;;2.90;2.70;;;18.10;99.90;;;;;;5036309;28;21568;-72
2022/05/23 08:41:35;;;;;;;2.50;2.30;;;18.20;99.90;;;;;;5038375;28;20561;-69
2022/05/23 08:44:30;;;;;;;2.80;2.30;;;18.20;99.90;;;;;;5041206;28;20611;-69
2022/05/23 08:47:28;;;;;;;3.60;2.70;;;18.20;99.90;;;;;;5042075;28;20506;-71
2022/05/23 08:50:18;;;;;;;2.53;2.40;;;18.30;99.90;;;;;;5042511;28;21103;-69
2022/05/23 08:53:15;;;;;;;2.73;2.40;;;18.30;99.90;;;;;;5040082;28;20499;-69
2022/05/23 08:56:19;;;;;;;4.53;2.37;;;18.40;99.90;;;;;;5039720;28;20953;-69
2022/05/23 08:59:19;;;;;;;2.50;2.30;;;18.60;99.90;;;;;;5038614;28;20590;-70
2022/05/23 09:02:11;;;;;;;2.53;2.33;;;18.70;99.90;;;;;;5040496;28;20546;-70
2022/05/23 09:05:05;;;;;;;3.03;2.70;;;18.70;99.90;;;;;;5041370;28;20447;-70
2022/05/23 09:07:56;;;;;;;4.70;2.77;;;18.80;99.90;;;;;;5039372;28;20528;-70
2022/05/23 09:10:49;;;;;;;2.90;2.60;;;18.90;99.90;;;;;;5035996;28;20987;-72
2022/05/23 09:13:41;;;;;;;3.47;2.40;;;19.00;99.90;;;;;;5039493;28;20489;-72
2022/05/23 09:16:32;;;;;;;4.43;2.63;;;19.00;99.90;;;;;;5033444;28;20966;-71
2022/05/23 09:19:24;;;;;;;2.60;2.40;;;19.10;99.90;;;;;;5040414;28;20478;-71
2022/05/23 09:22:18;;;;;;;4.37;2.60;;;19.20;99.90;;;;;;5038180;28;20486;-71
2022/05/23 09:25:07;;;;;;;2.90;2.60;;;19.30;99.90;;;;;;5037676;28;20463;-71
2022/05/23 09:28:20;;;;;;;2.53;2.30;;;19.30;99.90;;;;;;5037170;28;20485;-71
2022/05/23 09:31:16;;;;;;;2.80;2.23;;;19.40;99.90;;;;;;5046015;28;20450;-71
2022/05/23 09:34:05;;;;;;;3.10;2.50;;;19.50;99.90;;;;;;5045769;28;20984;-71
2022/05/23 09:36:53;;;;;;;6.60;2.70;;;19.60;99.90;;;;;;5036400;28;20537;-70
2022/05/23 09:39:51;;;;;;;4.30;2.90;;;19.70;99.90;;;;;;5039263;28;20606;-71
2022/05/23 09:49:11;;;;;;;2.60;2.40;;;19.90;99.90;;;;;;5004172;28;20472;-71
2022/05/23 09:52:03;;;;;;;3.40;2.80;;;20.00;99.90;;;;;;5000890;28;20551;-71
2022/05/23 09:54:54;;;;;;;3.90;3.10;;;20.10;99.90;;;;;;5035442;28;20567;-71
2022/05/23 09:57:50;;;;;;;3.30;3.10;;;20.20;99.90;;;;;;5037063;28;20518;-72
2022/05/23 10:00:40;;;;;;;4.00;2.83;;;20.20;99.90;;;;;;5038370;28;20535;-71
2022/05/23 10:03:31;;;;;;;3.50;3.10;;;20.30;99.90;;;;;;5035003;28;20581;-71
2022/05/23 10:06:19;;;;;;;2.90;2.70;;;20.40;99.90;;;;;;5036478;28;20446;-71
2022/05/23 10:09:09;;;;;;;4.03;3.17;;;20.40;99.90;;;;;;5038479;28;20553;-71
2022/05/23 10:11:59;;;;;;;3.10;2.77;;;20.50;99.90;;;;;;5037606;28;20502;-72
2022/05/23 10:14:51;;;;;;;4.43;3.57;;;20.50;99.90;;;;;;5034614;28;20539;-71
2022/05/23 10:17:41;;;;;;;3.63;2.90;;;20.50;99.90;;;;;;5037589;28;20578;-71
2022/05/23 10:20:35;;;;;;;3.37;3.07;;;20.60;99.90;;;;;;5036778;28;20942;-72
2022/05/23 10:23:28;;;;;;;3.97;3.30;;;20.60;99.90;;;;;;5037030;28;20471;-70
2022/05/23 10:26:21;;;;;;;5.30;3.40;;;20.60;99.90;;;;;;5038114;28;20484;-72
2022/05/23 10:29:15;;;;;;;2.83;2.63;;;20.70;99.90;;;;;;5036656;28;20467;-71
2022/05/23 10:32:07;;;;;;;4.50;2.77;;;20.80;99.90;;;;;;5038088;28;20849;-72
2022/05/23 10:35:06;;;;;;;6.90;2.97;;;20.80;99.90;;;;;;5038575;28;20483;-71
2022/05/23 10:42:07;;;;;;;3.37;3.13;;;20.80;99.90;;;;;;5039059;28;20480;-69
2022/05/23 10:44:31;;;;;;;4.80;3.40;;;21.00;99.90;;;;;;5035851;28;20467;-72
2022/05/23 10:47:30;;;;;;;3.73;3.03;;;21.10;99.90;;;;;;5038450;28;20916;-69
2022/05/23 10:50:23;;;;;;;4.83;3.37;;;21.10;99.90;;;;;;5036358;28;20509;-70
2022/05/23 10:53:28;;;;;;;3.97;3.30;;;21.20;99.90;;;;;;5037090;28;20482;-69
2022/05/23 10:56:26;;;;;;;3.57;3.30;;;21.20;99.90;;;;;;5036742;28;20541;-70
2022/05/23 10:59:20;;;;;;;3.60;3.00;;;21.30;99.90;;;;;;5037346;28;20470;-70
2022/05/23 11:02:25;;;;;;;4.60;3.30;;;21.30;99.90;;;;;;5038023;28;20594;-69
2022/05/23 11:05:27;;;;;;;4.93;3.40;;;21.30;99.90;;;;;;5037736;28;20581;-70
2022/05/23 11:08:34;;;;;;;4.53;3.30;;;21.40;99.90;;;;;;5036384;28;20561;-70
2022/05/23 11:11:40;;;;;;;4.20;3.60;;;21.40;99.90;;;;;;5043913;28;20470;-70
2022/05/23 11:14:45;;;;;;;5.13;3.20;;;21.50;99.90;;;;;;5047942;28;20560;-70
2022/05/23 11:17:44;;;;;;;3.50;3.20;;;21.60;99.90;;;;;;5049086;28;20572;-70
2022/05/23 11:20:35;;;;;;;3.90;3.10;;;21.70;99.90;;;;;;5039918;28;20463;-70
2022/05/23 11:23:29;;;;;;;4.13;2.87;;;21.70;99.90;;;;;;5039657;28;21080;-70
2022/05/23 11:26:21;;;;;;;3.87;3.40;;;21.80;99.90;;;;;;5038892;28;20501;-70
2022/05/23 11:35:31;;;;;;;3.63;3.03;;;21.90;99.90;;;;;;5040215;28;20580;-70
2022/05/23 11:38:21;;;;;;;4.63;3.00;;;22.00;99.90;;;;;;5041991;28;20478;-70
2022/05/23 11:41:26;;;;;;;5.43;3.30;;;22.10;99.90;;;;;;5040371;28;20902;-70
2022/05/23 11:44:55;;;;;;;3.43;3.10;;;22.20;99.90;;;;;;5036716;28;20569;-71
2022/05/23 11:47:48;;;;;;;4.23;3.17;;;22.30;99.90;;;;;;5041326;28;20561;-70
2022/05/23 11:50:50;;;;;;;4.17;3.00;;;22.40;99.90;;;;;;5042716;28;20487;-69
2022/05/23 11:53:42;;;;;;;3.57;3.30;;;22.50;99.90;;;;;;5041766;28;20493;-70
2022/05/23 11:56:39;;;;;;;3.00;2.80;;;22.50;99.90;;;;;;5040425;28;20531;-69
2022/05/23 12:00:25;;;;;;;6.20;3.40;;;22.60;99.90;;;;;;5040432;28;20462;-69
2022/05/23 12:03:16;;;;;;;2.80;2.60;;;22.70;99.90;;;;;;5036099;28;20578;-69
2022/05/23 12:06:16;;;;;;;4.20;3.30;;;22.80;99.90;;;;;;5052840;28;20474;-70
2022/05/23 12:09:22;;;;;;;3.63;3.30;;;22.80;99.90;;;;;;5049674;28;20551;-71
2022/05/23 12:12:49;;;;;;;5.00;3.37;;;22.80;99.90;;;;;;5041362;28;20595;-70
2022/05/23 12:15:52;;;;;;;3.23;2.97;;;22.70;99.90;;;;;;5044978;28;20992;-70
2022/05/23 12:18:40;;;;;;;2.90;2.70;;;22.80;99.90;;;;;;5039583;28;20965;-70
2022/05/23 12:21:45;;;;;;;4.17;3.13;;;22.90;99.90;;;;;;5041269;28;20557;-71
2022/05/23 12:24:35;;;;;;;4.00;3.30;;;23.10;99.90;;;;;;5038438;28;20582;-70
2022/05/23 12:27:37;;;;;;;6.03;3.10;;;23.10;99.90;;;;;;5037779;28;20482;-70
2022/05/23 12:30:43;;;;;;;3.97;3.40;;;23.20;99.90;;;;;;5039315;28;20486;-70
2022/05/23 12:33:31;;;;;;;3.50;3.20;;;23.30;99.90;;;;;;5039143;28;20926;-71
2022/05/23 12:36:22;;;;;;;3.30;3.10;;;23.40;99.90;;;;;;5038713;28;21050;-71
2022/05/23 12:39:47;;;;;;;4.57;3.20;;;23.40;99.90;;;;;;5039892;28;20600;-69
2022/05/23 12:42:47;;;;;;;3.20;2.90;;;23.50;99.90;;;;;;5038991;28;20466;-70
2022/05/23 12:45:59;;;;;;;3.50;3.20;;;23.60;99.90;;;;;;5038031;28;20448;-71
2022/05/23 12:49:13;;;;;;;7.20;3.33;;;23.70;99.90;;;;;;5039951;28;21239;-71
2022/05/23 12:52:13;;;;;;;3.53;3.23;;;23.70;99.90;;;;;;5039474;28;20455;-71
2022/05/23 12:55:17;;;;;;;4.47;3.30;;;23.80;99.90;;;;;;5038419;28;20917;-70
2022/05/23 12:58:32;;;;;;;4.27;3.20;;;23.90;99.90;;;;;;5037971;28;20508;-70
2022/05/23 13:01:27;;;;;;;3.50;3.20;;;24.00;99.90;;;;;;5037924;28;20489;-70
2022/05/23 13:04:23;;;;;;;3.50;3.20;;;24.00;99.90;;;;;;5038555;28;20510;-70
2022/05/23 13:07:15;;;;;;;3.53;3.23;;;24.10;99.90;;;;;;5038201;28;20444;-70
2022/05/23 13:10:08;;;;;;;3.30;3.00;;;24.10;99.90;;;;;;5037324;28;20534;-70
2022/05/23 13:13:03;;;;;;;3.03;2.80;;;24.10;99.90;;;;;;5039284;28;20673;-70
2022/05/23 13:15:57;;;;;;;3.00;2.80;;;24.10;99.90;;;;;;5038812;28;20479;-70
2022/05/23 13:22:06;;;;;;;3.10;2.90;;;24.40;99.90;;;;;;5037770;28;20503;-70
2022/05/23 13:24:57;;;;;;;4.33;3.23;;;24.40;99.90;;;;;;5039826;28;20450;-70
2022/05/23 13:27:58;;;;;;;3.47;3.07;;;24.50;99.90;;;;;;5035311;28;20489;-70
2022/05/23 13:30:49;;;;;;;4.70;3.20;;;24.70;99.90;;;;;;5036393;28;20466;-70
2022/05/23 13:33:46;;;;;;;3.70;3.00;;;24.80;99.90;;;;;;5036636;28;20551;-71
2022/05/23 13:36:43;;;;;;;2.80;2.60;;;24.90;99.90;;;;;;5039441;28;20627;-70
2022/05/23 13:39:31;;;;;;;3.63;3.33;;;25.10;99.90;;;;;;5037936;28;20851;-71
2022/05/23 13:42:21;;;;;;;3.47;3.17;;;25.20;99.90;;;;;;5038332;28;20589;-71
2022/05/23 13:45:13;;;;;;;4.77;3.10;;;25.30;99.90;;;;;;5036514;28;20443;-70
2022/05/23 13:48:06;;;;;;;6.03;2.97;;;25.30;99.90;;;;;;5036047;28;20854;-71
2022/05/23 13:50:58;;;;;;;3.33;2.97;;;25.30;99.90;;;;;;5035115;28;20691;-71
2022/05/23 13:53:51;;;;;;;4.07;3.50;;;25.40;99.90;;;;;;5036392;28;20492;-70
2022/05/23 13:56:43;;;;;;;4.40;3.43;;;25.50;99.90;;;;;;5036755;28;20609;-71
2022/05/23 13:59:39;;;;;;;3.90;3.10;;;25.60;99.90;;;;;;5036750;28;20538;-72
2022/05/23 14:02:36;;;;;;;3.30;3.00;;;25.60;99.90;;;;;;5037232;28;20619;-70
2022/05/23 14:05:29;;;;;;;3.30;3.00;;;25.70;99.90;;;;;;5043120;28;20570;-69
2022/05/23 14:08:24;;;;;;;4.30;3.30;;;25.70;99.90;;;;;;5034978;28;21018;-69
2022/05/23 14:11:22;;;;;;;3.73;3.37;;;25.70;99.90;;;;;;5038264;28;20454;-70
2022/05/23 14:14:17;;;;;;;3.50;3.20;;;25.80;99.90;;;;;;5035498;28;20573;-71
2022/05/23 14:17:12;;;;;;;3.93;3.63;;;25.90;99.90;;;;;;5037673;28;20526;-70
2022/05/23 14:20:14;;;;;;;3.80;3.23;;;25.90;99.90;;;;;;5039328;28;20482;-71
2022/05/23 14:23:06;;;;;;;3.37;2.70;;;25.90;99.90;;;;;;5037111;28;20504;-70
2022/05/23 14:26:19;;;;;;;5.97;3.23;;;25.90;99.90;;;;;;5036100;28;20539;-71
2022/05/23 14:29:14;;;;;;;4.83;2.93;;;26.30;99.90;;;;;;5036920;28;20488;-70
2022/05/23 14:32:12;;;;;;;3.53;2.90;;;26.40;99.90;;;;;;5037927;28;20965;-71
2022/05/23 14:35:10;;;;;;;3.93;2.90;;;26.50;99.90;;;;;;5038326;28;20556;-71
2022/05/23 14:37:58;;;;;;;3.20;3.00;;;26.50;99.90;;;;;;5040274;28;20520;-71
2022/05/23 14:40:47;;;;;;;4.03;2.97;;;26.20;99.90;;;;;;5036554;28;20460;-72
2022/05/23 14:43:35;;;;;;;3.00;2.80;;;26.20;99.90;;;;;;5037540;28;20467;-71
2022/05/23 14:46:27;;;;;;;3.97;2.97;;;26.20;99.90;;;;;;5036060;28;20485;-72
2022/05/23 14:49:28;;;;;;;3.23;3.03;;;26.20;99.90;;;;;;5038176;28;20571;-72
2022/05/23 14:52:21;;;;;;;3.93;3.13;;;26.20;99.90;;;;;;5035409;28;20557;-71
2022/05/23 14:55:20;;;;;;;3.00;2.70;;;26.20;99.90;;;;;;5039485;28;20920;-70
2022/05/23 15:01:23;;;;;;;4.03;2.90;;;26.00;99.90;;;;;;5038208;28;20454;-71
2022/05/23 15:04:23;;;;;;;4.40;2.60;;;25.90;99.90;;;;;;5040939;28;21010;-70
2022/05/23 15:07:11;;;;;;;3.40;2.57;;;25.80;99.90;;;;;;5043233;28;20442;-71
2022/05/23 15:10:03;;;;;;;3.03;2.70;;;25.90;99.90;;;;;;5042469;28;20967;-70
2022/05/23 15:12:51;;;;;;;2.90;2.70;;;26.10;99.90;;;;;;5042516;28;21018;-70
2022/05/23 15:15:41;;;;;;;2.87;2.67;;;26.10;99.90;;;;;;5035502;28;20464;-72
2022/05/23 15:18:31;;;;;;;3.23;2.97;;;25.90;99.90;;;;;;5041863;28;20529;-70
2022/05/23 15:21:20;;;;;;;3.40;3.10;;;25.90;99.90;;;;;;5042644;28;20564;-70
2022/05/23 15:24:11;;;;;;;4.10;2.97;;;26.00;99.90;;;;;;5040785;28;20482;-70
2022/05/23 15:26:59;;;;;;;3.43;2.77;;;25.90;99.90;;;;;;5041345;28;20945;-70
2022/05/23 15:29:56;;;;;;;4.07;2.90;;;25.90;99.90;;;;;;5042932;28;20952;-70
2022/05/23 15:32:44;;;;;;;3.13;2.70;;;25.90;99.90;;;;;;5042250;28;20465;-72
2022/05/23 15:35:35;;;;;;;3.40;3.10;;;25.90;99.90;;;;;;5041407;28;20451;-70
2022/05/23 15:38:24;;;;;;;3.03;2.73;;;25.90;99.90;;;;;;5040346;28;20625;-70
2022/05/23 15:41:15;;;;;;;4.27;3.20;;;26.00;99.90;;;;;;5036037;28;20570;-70
2022/05/23 15:44:06;;;;;;;3.43;2.93;;;25.90;99.90;;;;;;5038318;28;20540;-71
2022/05/23 15:46:54;;;;;;;3.70;3.20;;;25.60;99.90;;;;;;5027854;28;20544;-72
2022/05/23 15:49:44;;;;;;;3.63;3.33;;;25.70;99.90;;;;;;5036427;28;20987;-71
2022/05/23 15:52:32;;;;;;;3.90;3.00;;;25.70;99.90;;;;;;5041416;28;20609;-71
2022/05/23 15:55:22;;;;;;;3.47;3.27;;;25.70;99.90;;;;;;5040701;28;20964;-71
2022/05/23 15:58:12;;;;;;;3.10;2.90;;;25.60;99.90;;;;;;5037703;28;20539;-72
2022/05/23 16:01:00;;;;;;;5.23;3.00;;;25.70;99.90;;;;;;5026250;28;20457;-70
2022/05/23 16:03:49;;;;;;;4.00;2.80;;;25.80;99.90;;;;;;5037369;28;20477;-71
2022/05/23 16:06:37;;;;;;;3.33;2.67;;;25.70;99.90;;;;;;5034443;28;20446;-71
2022/05/23 16:09:26;;;;;;;3.50;2.93;;;25.70;99.90;;;;;;5038332;28;20490;-71